createdAt,value
2023-02-18T00:05:39.367Z,4.8
2023-02-18T00:20:49.121Z,12.7
2023-02-18T00:35:58.903Z,8.4
2023-02-18T00:51:08.682Z,7
2023-02-18T01:06:18.371Z,9.9
2023-02-18T01:21:27.790Z,10.9
2023-02-18T01:36:37.314Z,8
2023-02-18T01:51:46.567Z,7.8
2023-02-18T02:06:55.766Z,11.5
2023-02-18T02:22:05.560Z,6.6
2023-02-18T02:37:15.651Z,11.8
2023-02-18T02:52:25.362Z,5.3
2023-02-18T03:07:35.312Z,17.7
2023-02-18T03:22:44.956Z,12.3
2023-02-18T03:37:54.640Z,8.2
2023-02-18T03:53:04.460Z,13.9
2023-02-18T04:08:14.093Z,22.5
2023-02-18T04:23:23.256Z,21.3
2023-02-18T04:38:33.180Z,18
2023-02-18T04:53:42.553Z,22.3
2023-02-18T05:08:52.396Z,22
2023-02-18T05:24:02.272Z,18.2
2023-02-18T05:39:14.906Z,15.2
2023-02-18T05:55:26.846Z,22.9
2023-02-18T06:10:37.189Z,20.6
2023-02-18T06:25:46.584Z,22.9
2023-02-18T06:40:56.063Z,34.7
2023-02-18T06:56:05.433Z,46.6
2023-02-18T07:11:14.909Z,46.6
2023-02-18T07:26:24.658Z,47.6
2023-02-18T07:41:34.298Z,45.4
2023-02-18T07:56:44.160Z,37.1
2023-02-18T08:11:54.404Z,21.3
2023-02-18T08:27:04.042Z,14.6
2023-02-18T08:42:13.763Z,10.6
2023-02-18T08:57:23.361Z,7.3
2023-02-18T09:12:33.072Z,4.7
2023-02-18T09:27:42.841Z,4.2
2023-02-18T09:42:52.293Z,2.4
2023-02-18T09:58:01.874Z,2.3
2023-02-18T10:13:11.701Z,2.3
2023-02-18T10:28:21.358Z,2.2
2023-02-18T10:43:30.503Z,1.6
2023-02-18T10:58:39.528Z,1.8
2023-02-18T11:13:48.817Z,3.1
2023-02-18T11:28:58.546Z,2.3
2023-02-18T11:44:08.184Z,3.2
2023-02-18T11:59:17.597Z,5.2
2023-02-18T12:14:27.635Z,2.8
2023-02-18T12:29:37.940Z,2.8
2023-02-18T12:44:47.460Z,4.6
2023-02-18T12:59:57.324Z,4
2023-02-18T13:15:06.376Z,9.9
2023-02-18T13:30:16.199Z,3.1
2023-02-18T13:45:26.746Z,6.4
2023-02-18T14:00:36.274Z,3.6
2023-02-18T14:15:46.417Z,5.7
2023-02-18T14:30:56.500Z,6
2023-02-18T14:46:06.894Z,7.6
2023-02-18T15:01:16.943Z,8.6
2023-02-18T15:16:26.979Z,6.8
2023-02-18T15:31:37.065Z,10.8
2023-02-18T15:46:46.853Z,12.3
2023-02-18T16:01:59.213Z,15.1
2023-02-18T16:17:09.249Z,8.8
2023-02-18T16:32:19.332Z,11.3
2023-02-18T16:47:29.389Z,9.4
2023-02-18T17:02:38.663Z,9.4
2023-02-18T17:17:47.955Z,13.1
2023-02-18T17:32:57.506Z,8.2
2023-02-18T17:48:07.047Z,8.8
2023-02-18T18:04:56.842Z,10.6
2023-02-18T18:20:07.098Z,5.9
2023-02-18T18:35:16.506Z,9.1
2023-02-18T18:50:26.338Z,10.6
2023-02-18T19:05:35.654Z,5.2
2023-02-18T19:20:45.356Z,6.2
2023-02-18T19:35:55.454Z,6.6
2023-02-18T19:51:04.837Z,13.3
2023-02-18T20:06:15.311Z,10
2023-02-18T20:21:25.324Z,10.1
2023-02-18T20:36:34.844Z,14.2
2023-02-18T20:51:44.893Z,9.2
2023-02-18T21:06:56.754Z,12
2023-02-18T21:22:06.482Z,14.4
2023-02-18T21:37:16.508Z,14.3
2023-02-18T21:52:26.516Z,12.4
2023-02-18T22:07:36.109Z,17.8
2023-02-18T22:22:45.803Z,15.8
2023-02-18T22:37:55.405Z,17.1
2023-02-18T22:53:04.640Z,19.3
2023-02-18T23:08:14.649Z,20.8
2023-02-18T23:23:24.264Z,33.3
2023-02-18T23:38:33.922Z,17.4
2023-02-18T23:53:43.687Z,24.5
